Aviation Digital Data Service (ADDS)

Output produced by METARs form (0702 UTC 24 March 2019)
found at http://www.aviationweather.gov/metar/data/
 
KTMT 240655Z AUTO 26004KT 10SM BKN030 BKN036 OVC050 01/00 A3013 RMK AO2 T00061005
KBAM 240655Z AUTO 20005KT 10SM CLR 04/01 A3007 RMK AO1
KBAM 240520Z 2406/2506 23006KT P6SM VCSH SCT025 BKN080 
     FM241200 VRB05KT P6SM BKN030 
     FM242100 VRB05KT P6SM SCT050 BKN250
       
KBVU 240655Z AUTO 00000KT 10SM FEW041 SCT050 BKN085 14/03 A3000 RMK AO2
KCXP 240655Z AUTO 36006KT 10SM OVC043 03/M03 A3015 RMK AO2
KCXP 240542Z 2406/2506 VRB03KT P6SM SCT050 BKN180 
     FM242300 22008KT P6SM BKN150 
     FM250400 VRB04KT P6SM BKN110
       
KEKO 240656Z AUTO 00000KT 10SM SCT018 BKN090 OVC120 02/01 A3004 RMK AO2 SLP171 T00220006
KEKO 240520Z 2406/2506 25005KT P6SM -SHSN SCT015 BKN025 
     FM241000 24004KT P6SM VCSH SCT008 OVC015 
     FM241900 24008KT P6SM BKN035 
     FM250300 VRB03KT P6SM BKN150
       
KELY 240653Z AUTO 30011KT 10SM BKN050 OVC070 00/M01 A3006 RMK AO2 SNE32 SLP163 P0003 T00001011
KELY 240520Z 2406/2506 24005KT 3SM -SHSN SCT015 OVC025 
     TEMPO 2406/2409 1SM -SN BR SCT008 OVC015 
     FM240900 24006KT P6SM -SHSN OVC015 
     FM241300 22008KT P6SM BKN035 
     FM250200 VRB04KT P6SM BKN150
       
K05U 240655Z AUTO 00000KT 10SM OVC075 00/M00 A3009 RMK A01
KHTH 240655Z AUTO 25006KT 10SM CLR 04/M04 A3013 RMK A01
KHND 240656Z AUTO 22014KT 10SM CLR 14/03 A3002 RMK AO2 PK WND 21028/0624 SLP157 T01390028 $
KHND 240520Z 2406/2506 21013KT P6SM FEW100 
     FM241200 18007KT P6SM FEW100 
     FM241800 02006KT P6SM FEW100 
     FM250200 18006KT P6SM SCT250
       
KLAS 240656Z 20011G21KT 10SM FEW100 15/01 A2998 RMK AO2 SLP139 T01500011
KLAS 240520Z 2406/2512 19015G25KT P6SM FEW100 
     FM240900 22010KT P6SM FEW100 
     FM241800 VRB05KT P6SM FEW100 
     FM250200 21006KT P6SM SCT250
       
KVGT 240653Z AUTO 17014KT 10SM CLR 15/01 A2997 RMK AO2 SLP157 T01500011
KVGT 240520Z 2406/2506 VRB05KT P6SM FEW100 
     FM240800 33010KT P6SM FEW100 
     FM241800 VRB05KT P6SM FEW100 
     FM250400 33006KT P6SM SCT250
       
KLOL 240653Z AUTO 00000KT 10SM FEW042 SCT080 OVC120 03/M01 A3013 RMK AO2 SLP212 T00281011
KMEV 240655Z AUTO 12007KT 10SM OVC046 02/M03 A3018 RMK AO2
KRTS 240655Z AUTO 26005KT 10SM CLR M01/M05 A3016 RMK AO2
KRNO 240655Z 36008KT 10SM FEW080 03/M04 A3017 RMK AO2 SLP215 T00331044 $
KRNO 240542Z 2406/2506 34008KT P6SM SCT050 BKN110 
     FM240700 VRB04KT P6SM SCT060 BKN180 
     FM242200 21008KT P6SM BKN150 
     FM250400 VRB04KT P6SM BKN120
       
KTPH 240656Z AUTO 34010KT 10SM CLR 03/M03 A3011 RMK AO2 SLP178 T00281033 $
KTPH 240520Z 2406/2506 33011KT P6SM SCT035 SCT150 
     FM242000 25007KT P6SM BKN150
       
KWMC 240656Z AUTO 24009KT 10SM BKN046 OVC060 03/01 A3009 RMK AO2 SLP186 T00330011
KWMC 240520Z 2406/2506 25005KT P6SM VCSH FEW035 BKN120 
     FM241000 VRB05KT P6SM BKN025 
     FM241700 19008KT P6SM SCT035 BKN200